Pointe Aux Pins, Michigan
Current Conditions -  °F | °C
As of 10:37 AM on Saturday 22 Nov 2014 (Local Time) from KSLH Reporting Station
Overcast Overcast  
Wind Chill: 27°   Ceiling: 1000
Heat Index: 36°   Visibility: 10mi
Dew Point: 33°   Wind: 16mph
Humidity: 88%   Direction: 220°SW
Pressure: 29.81"   Gusts: 21mph
Location:  45.73°N, 84.48°W
Report Text: KSLH 221537Z AUTO 22014G18KT 10SM OVC010 02/00 A2981 RMK AO2 T00230005
Loading
Personal Weather Stations






























Interactive Weather Map New forecast layout! Learn more

10-Day Weather Forecast

Advertisements
Track Severe Weather on mobile